createdAt,value
2018-01-04T00:00:27.206Z,9.70
2018-01-04T00:02:56.388Z,9.90
2018-01-04T00:05:25.267Z,9.80
2018-01-04T00:07:54.291Z,9.90
2018-01-04T00:10:22.549Z,9.80
2018-01-04T00:12:50.840Z,10.10
2018-01-04T00:15:19.110Z,9.90
2018-01-04T00:17:47.390Z,10.10
2018-01-04T00:20:15.661Z,10.10
2018-01-04T00:22:45.604Z,9.80
2018-01-04T00:25:14.729Z,10.00
2018-01-04T00:27:43.053Z,10.20
2018-01-04T00:30:11.334Z,10.10
2018-01-04T00:32:39.612Z,9.90
2018-01-04T00:35:07.950Z,10.10
2018-01-04T00:37:36.237Z,10.10
2018-01-04T00:40:04.535Z,10.20
2018-01-04T00:42:33.531Z,10.20
2018-01-04T00:45:02.573Z,10.20
2018-01-04T00:47:31.004Z,10.10
2018-01-04T00:50:00.193Z,10.10
2018-01-04T00:52:29.272Z,10.20
2018-01-04T00:54:57.491Z,10.30
2018-01-04T00:57:25.889Z,10.10
2018-01-04T00:59:54.174Z,10.20
2018-01-04T01:02:23.408Z,10.20
2018-01-04T01:04:51.979Z,10.50
2018-01-04T01:07:20.210Z,10.20
2018-01-04T01:09:49.377Z,10.30
2018-01-04T01:12:18.211Z,10.20
2018-01-04T01:14:47.438Z,10.10
2018-01-04T01:17:15.693Z,10.10
2018-01-04T01:19:44.101Z,10.00
2018-01-04T01:22:14.298Z,10.20
2018-01-04T01:24:42.560Z,10.20
2018-01-04T01:27:10.919Z,10.20
2018-01-04T01:29:39.190Z,10.20
2018-01-04T01:32:07.437Z,10.20
2018-01-04T01:34:36.496Z,10.10
2018-01-04T01:37:04.757Z,10.20
2018-01-04T01:39:33.048Z,10.10
2018-01-04T01:42:01.314Z,10.10
2018-01-04T01:44:29.622Z,10.20
2018-01-04T01:46:57.879Z,10.10
2018-01-04T01:49:26.179Z,10.20
2018-01-04T01:51:54.570Z,10.10
2018-01-04T01:54:22.804Z,10.10
2018-01-04T01:56:52.113Z,10.20
2018-01-04T01:59:20.380Z,10.10
2018-01-04T02:01:48.647Z,10.10
2018-01-04T02:04:16.925Z,10.20
2018-01-04T02:06:45.211Z,10.20
2018-01-04T02:09:13.715Z,10.20
2018-01-04T02:11:41.956Z,10.30
2018-01-04T02:14:10.204Z,10.30
2018-01-04T02:16:38.483Z,10.10
2018-01-04T02:19:18.701Z,10.10
2018-01-04T02:21:58.708Z,10.20
2018-01-04T02:24:38.860Z,10.20
2018-01-04T02:27:18.829Z,10.10
2018-01-04T02:29:58.952Z,10.20
2018-01-04T02:32:39.112Z,10.20
2018-01-04T02:35:19.184Z,10.20
2018-01-04T02:37:59.084Z,10.10
2018-01-04T02:40:39.122Z,10.20
2018-01-04T02:43:19.256Z,10.10
2018-01-04T02:45:59.290Z,9.90
2018-01-04T02:48:28.129Z,10.00
2018-01-04T02:50:56.222Z,10.20
2018-01-04T02:53:24.228Z,10.20
2018-01-04T02:55:52.252Z,10.10
2018-01-04T02:58:20.317Z,10.00
2018-01-04T03:00:48.326Z,10.20
2018-01-04T03:03:17.365Z,10.10
2018-01-04T03:05:46.282Z,10.10
2018-01-04T03:08:14.327Z,10.20
2018-01-04T03:10:42.446Z,10.20
2018-01-04T03:13:10.468Z,10.40
2018-01-04T03:15:38.468Z,10.10
2018-01-04T03:18:06.507Z,10.20
2018-01-04T03:20:34.596Z,10.20
2018-01-04T03:23:08.962Z,10.20
2018-01-04T03:25:42.636Z,10.30
2018-01-04T03:28:17.188Z,10.20
2018-01-04T03:30:51.510Z,10.20
2018-01-04T03:33:25.157Z,10.20
2018-01-04T03:35:58.967Z,10.20
2018-01-04T03:38:32.613Z,10.20
2018-01-04T03:41:06.564Z,10.30
2018-01-04T03:43:40.373Z,10.10
2018-01-04T03:46:13.993Z,10.20
2018-01-04T03:48:47.656Z,10.20
2018-01-04T03:51:21.269Z,10.20
2018-01-04T03:53:55.797Z,10.10
2018-01-04T03:56:29.456Z,10.30
2018-01-04T03:59:04.196Z,10.20
2018-01-04T04:01:37.839Z,10.20
2018-01-04T04:07:10.667Z,10.10
2018-01-04T04:09:38.913Z,10.20
2018-01-04T04:12:07.172Z,10.20
2018-01-04T04:14:35.320Z,10.20
2018-01-04T04:17:03.457Z,10.10
2018-01-04T04:19:32.246Z,10.20
2018-01-04T04:22:00.315Z,10.20
2018-01-04T04:24:28.568Z,10.20
2018-01-04T04:26:56.578Z,10.10
2018-01-04T04:29:24.713Z,10.20
2018-01-04T04:31:52.838Z,10.20
2018-01-04T04:34:21.473Z,10.10
2018-01-04T04:36:49.512Z,10.10
2018-01-04T04:39:18.521Z,10.30
2018-01-04T04:41:46.705Z,10.20
2018-01-04T04:44:14.836Z,10.30
2018-01-04T04:46:42.868Z,10.10
2018-01-04T04:49:12.644Z,10.10
2018-01-04T04:51:40.656Z,10.10
2018-01-04T04:54:09.453Z,9.80
2018-01-04T04:56:37.466Z,9.80
2018-01-04T04:59:07.488Z,10.10
2018-01-04T05:01:35.591Z,10.10
2018-01-04T05:04:04.389Z,10.20
2018-01-04T05:06:32.709Z,10.10
2018-01-04T05:09:01.637Z,10.10
2018-01-04T05:11:29.740Z,10.20
2018-01-04T05:13:59.489Z,9.90
2018-01-04T05:16:27.516Z,10.20
2018-01-04T05:18:55.532Z,10.20
2018-01-04T05:21:23.592Z,10.10
2018-01-04T05:23:52.360Z,10.20
2018-01-04T05:26:20.364Z,10.20
2018-01-04T05:28:48.413Z,10.20
2018-01-04T05:31:17.003Z,10.00
2018-01-04T05:33:45.033Z,10.10
2018-01-04T05:36:13.093Z,10.10
2018-01-04T05:38:41.137Z,10.40
2018-01-04T05:41:09.154Z,10.30
2018-01-04T05:43:37.216Z,10.30
2018-01-04T05:46:05.244Z,10.20
2018-01-04T05:48:33.341Z,10.20
2018-01-04T05:51:02.280Z,10.30
2018-01-04T05:53:30.324Z,10.20
2018-01-04T05:55:59.296Z,10.20
2018-01-04T05:58:28.353Z,10.20
2018-01-04T06:00:57.139Z,10.20
2018-01-04T06:03:25.164Z,10.30
2018-01-04T06:05:53.252Z,10.20
2018-01-04T06:08:21.331Z,10.30
2018-01-04T06:10:50.115Z,10.20
2018-01-04T06:13:18.253Z,10.20
2018-01-04T06:15:46.236Z,10.20
2018-01-04T06:18:15.066Z,10.20
2018-01-04T06:20:43.124Z,10.20
2018-01-04T06:23:11.168Z,10.20
2018-01-04T06:25:39.184Z,10.10
2018-01-04T06:28:07.963Z,10.50
2018-01-04T06:30:35.994Z,10.60
2018-01-04T06:33:04.624Z,10.30
2018-01-04T06:35:32.747Z,10.30
2018-01-04T06:38:00.766Z,10.50
2018-01-04T06:40:28.793Z,10.60
2018-01-04T06:42:56.793Z,10.30
2018-01-04T06:45:24.800Z,10.50
2018-01-04T06:47:52.863Z,10.50
2018-01-04T06:50:20.985Z,10.60
2018-01-04T06:52:49.784Z,10.40
2018-01-04T06:55:17.879Z,10.40
2018-01-04T06:57:46.736Z,10.50
2018-01-04T07:00:14.804Z,10.50
2018-01-04T07:02:42.909Z,10.30
2018-01-04T07:05:11.780Z,10.60
2018-01-04T07:07:39.808Z,10.50
2018-01-04T07:10:08.202Z,10.50
2018-01-04T07:12:36.189Z,10.50
2018-01-04T07:15:04.320Z,10.50
2018-01-04T07:17:32.397Z,10.30
2018-01-04T07:20:00.510Z,10.60
2018-01-04T07:22:28.516Z,10.50
2018-01-04T07:24:56.692Z,10.50
2018-01-04T07:27:24.698Z,10.40
2018-01-04T07:29:53.550Z,10.50
2018-01-04T07:32:23.371Z,10.40
2018-01-04T07:34:51.405Z,10.50
2018-01-04T07:37:19.653Z,10.50
2018-01-04T07:39:47.713Z,10.50
2018-01-04T07:42:16.758Z,10.60
2018-01-04T07:44:45.025Z,10.90
2018-01-04T07:47:14.212Z,11.00
2018-01-04T07:49:42.439Z,11.10
2018-01-04T07:52:11.585Z,11.00
2018-01-04T07:54:39.860Z,11.00
2018-01-04T07:57:08.133Z,10.60
2018-01-04T07:59:36.568Z,10.50
2018-01-04T08:02:05.631Z,10.60
2018-01-04T08:04:34.641Z,10.80
2018-01-04T08:07:02.914Z,10.50
2018-01-04T08:09:32.044Z,10.60
2018-01-04T08:12:00.432Z,10.40
2018-01-04T08:14:28.682Z,10.50
2018-01-04T08:16:56.946Z,10.30
2018-01-04T08:19:25.352Z,10.40
2018-01-04T08:21:53.622Z,10.50
2018-01-04T08:24:21.896Z,10.60
2018-01-04T08:26:50.196Z,10.60
2018-01-04T08:29:19.236Z,10.40
2018-01-04T08:31:47.524Z,10.60
2018-01-04T08:34:15.943Z,10.40
2018-01-04T08:36:44.242Z,10.50
2018-01-04T08:39:12.517Z,10.40
2018-01-04T08:41:41.180Z,10.50
2018-01-04T08:44:09.457Z,10.20
2018-01-04T08:46:38.763Z,10.50
2018-01-04T08:49:06.995Z,10.50
2018-01-04T08:51:36.135Z,10.40
2018-01-04T08:54:04.373Z,10.40
2018-01-04T08:56:32.688Z,10.50
2018-01-04T08:59:00.967Z,10.40
2018-01-04T09:01:29.239Z,10.50
2018-01-04T09:03:57.524Z,10.30
2018-01-04T09:06:25.774Z,10.70
2018-01-04T09:08:54.065Z,10.30
2018-01-04T09:11:22.327Z,10.40
2018-01-04T09:13:50.822Z,10.60
2018-01-04T09:16:20.334Z,10.70
2018-01-04T09:18:48.766Z,10.50
2018-01-04T09:21:16.994Z,10.60
2018-01-04T09:23:46.053Z,10.50
2018-01-04T09:26:15.971Z,10.70
2018-01-04T09:28:44.825Z,10.50
2018-01-04T09:31:14.043Z,10.50
2018-01-04T09:33:42.578Z,10.50
2018-01-04T09:36:10.862Z,10.50
2018-01-04T09:38:39.901Z,10.50
2018-01-04T09:41:08.220Z,10.60
2018-01-04T09:43:36.497Z,10.80
2018-01-04T09:46:04.753Z,10.60
2018-01-04T09:48:33.007Z,10.70
2018-01-04T09:51:01.581Z,10.80
2018-01-04T09:53:30.007Z,10.80
2018-01-04T09:55:59.916Z,10.60
2018-01-04T09:58:28.960Z,10.70
2018-01-04T10:00:57.264Z,10.70
2018-01-04T10:03:25.520Z,10.60
2018-01-04T10:05:53.776Z,10.90
2018-01-04T10:08:22.105Z,10.60
2018-01-04T10:10:50.364Z,10.70
2018-01-04T10:13:18.620Z,10.90
2018-01-04T10:15:47.128Z,10.80
2018-01-04T10:18:15.426Z,10.80
2018-01-04T10:20:43.675Z,10.90
2018-01-04T10:23:11.976Z,10.90
2018-01-04T10:25:40.267Z,10.90
2018-01-04T10:28:08.531Z,11.00
2018-01-04T10:30:36.805Z,10.90
2018-01-04T10:33:05.058Z,10.90
2018-01-04T10:35:33.325Z,10.90
2018-01-04T10:38:01.604Z,10.70
2018-01-04T10:40:29.879Z,10.80
2018-01-04T10:42:58.185Z,10.80
2018-01-04T10:45:26.960Z,10.90
2018-01-04T10:47:55.967Z,11.10
2018-01-04T10:50:25.784Z,11.10
2018-01-04T10:52:54.884Z,11.00
2018-01-04T10:55:23.145Z,11.00
2018-01-04T10:57:51.414Z,10.90
2018-01-04T11:00:19.823Z,11.00
2018-01-04T11:02:48.095Z,11.00
2018-01-04T11:05:16.385Z,10.80
2018-01-04T11:07:46.563Z,11.00
2018-01-04T11:10:14.837Z,10.80
2018-01-04T11:12:43.922Z,11.20
2018-01-04T11:15:12.184Z,11.30
2018-01-04T11:17:40.460Z,11.00
2018-01-04T11:20:08.737Z,11.30
2018-01-04T11:22:36.973Z,11.20
2018-01-04T11:25:06.151Z,11.30
2018-01-04T11:27:34.421Z,11.40
2018-01-04T11:30:02.673Z,11.20
2018-01-04T11:32:30.949Z,11.30
2018-01-04T11:34:59.229Z,11.50
2018-01-04T11:37:27.501Z,11.40
2018-01-04T11:40:01.511Z,11.50
2018-01-04T11:42:30.739Z,11.60
2018-01-04T11:45:00.742Z,11.50
2018-01-04T11:47:29.143Z,11.50
2018-01-04T11:49:57.379Z,11.50
2018-01-04T11:52:26.722Z,11.60
2018-01-04T11:54:54.976Z,11.80
2018-01-04T11:57:23.229Z,11.50
2018-01-04T11:59:51.549Z,11.40
2018-01-04T12:02:19.881Z,11.60
2018-01-04T12:04:48.136Z,11.40
2018-01-04T12:07:17.370Z,11.70
2018-01-04T12:09:46.628Z,11.50
2018-01-04T12:12:16.598Z,11.50
2018-01-04T12:14:44.892Z,11.60
2018-01-04T12:17:13.267Z,11.60
2018-01-04T12:19:42.628Z,11.50
2018-01-04T12:22:10.908Z,11.50
2018-01-04T12:24:39.176Z,11.30
2018-01-04T12:27:07.464Z,11.60
2018-01-04T12:29:35.730Z,11.50
2018-01-04T12:32:05.575Z,11.50
2018-01-04T12:34:34.765Z,11.40
2018-01-04T12:37:03.789Z,11.60
2018-01-04T12:39:32.038Z,11.30
2018-01-04T12:42:00.445Z,11.60
2018-01-04T12:44:28.947Z,11.50
2018-01-04T12:46:57.251Z,11.40
2018-01-04T12:49:26.395Z,11.80
2018-01-04T12:51:54.618Z,11.80
2018-01-04T12:54:22.899Z,11.90
2018-01-04T12:56:51.152Z,11.80
2018-01-04T12:59:20.360Z,11.50
2018-01-04T13:01:49.622Z,11.70
2018-01-04T13:04:17.920Z,11.60
2018-01-04T13:06:47.098Z,11.70
2018-01-04T13:09:15.358Z,11.40
2018-01-04T13:11:43.623Z,11.50
2018-01-04T13:14:11.920Z,11.40
2018-01-04T13:16:40.206Z,11.80
2018-01-04T13:19:09.430Z,11.60
2018-01-04T13:21:37.700Z,11.70
2018-01-04T13:24:05.980Z,11.50
2018-01-04T13:26:35.049Z,11.50
2018-01-04T13:29:03.338Z,11.50
2018-01-04T13:31:31.572Z,11.60
2018-01-04T13:34:00.941Z,11.50
2018-01-04T13:36:29.944Z,11.70
2018-01-04T13:38:59.222Z,11.50
2018-01-04T13:41:27.469Z,11.40
2018-01-04T13:43:56.529Z,11.40
2018-01-04T13:46:25.710Z,11.30
2018-01-04T13:48:53.985Z,11.50
2018-01-04T13:51:22.237Z,11.40
2018-01-04T13:53:51.285Z,11.40
2018-01-04T13:56:19.538Z,11.50
2018-01-04T13:58:47.834Z,11.30
2018-01-04T14:01:16.135Z,11.60
2018-01-04T14:03:45.245Z,11.50
2018-01-04T14:06:14.393Z,11.60
2018-01-04T14:08:44.163Z,11.50
2018-01-04T14:11:12.519Z,11.40
2018-01-04T14:13:41.394Z,11.30
2018-01-04T14:16:09.641Z,11.40
2018-01-04T14:18:37.897Z,11.60
2018-01-04T14:21:06.206Z,11.50
2018-01-04T14:23:34.466Z,11.70
2018-01-04T14:26:02.735Z,11.40
2018-01-04T14:28:31.991Z,11.30
2018-01-04T14:31:01.570Z,11.60
2018-01-04T14:33:29.824Z,11.30
2018-01-04T14:35:58.109Z,11.50
2018-01-04T14:38:26.394Z,11.50
2018-01-04T14:40:54.697Z,11.40
2018-01-04T14:43:22.962Z,11.40
2018-01-04T14:45:52.181Z,11.40
2018-01-04T14:48:21.993Z,11.50
2018-01-04T14:50:50.266Z,11.10
2018-01-04T14:53:20.184Z,11.50
2018-01-04T14:55:48.484Z,11.40
2018-01-04T14:58:19.616Z,11.40
2018-01-04T15:00:48.703Z,11.20
2018-01-04T15:03:16.948Z,11.40
2018-01-04T15:05:45.209Z,11.30
2018-01-04T15:08:13.769Z,11.40
2018-01-04T15:10:42.764Z,11.10
2018-01-04T15:13:11.015Z,11.50
2018-01-04T15:15:39.291Z,11.40
2018-01-04T15:18:07.546Z,11.30
2018-01-04T15:20:36.613Z,11.30
2018-01-04T15:23:04.872Z,11.60
2018-01-04T15:25:33.174Z,11.60
2018-01-04T15:28:02.144Z,11.40
2018-01-04T15:30:30.393Z,11.60
2018-01-04T15:32:59.504Z,11.60
2018-01-04T15:35:28.637Z,11.70
2018-01-04T15:37:56.876Z,11.90
2018-01-04T15:40:25.165Z,11.70
2018-01-04T15:42:53.452Z,11.50
2018-01-04T15:45:21.784Z,11.60
2018-01-04T15:47:50.824Z,11.80
2018-01-04T15:50:19.070Z,11.80
2018-01-04T15:52:47.348Z,11.90
2018-01-04T15:55:15.788Z,11.90
2018-01-04T15:57:44.002Z,12.00
2018-01-04T16:00:12.272Z,11.90
2018-01-04T16:02:41.308Z,12.00
2018-01-04T16:05:09.557Z,12.20
2018-01-04T16:07:38.408Z,12.10
2018-01-04T16:10:06.706Z,12.10
2018-01-04T16:12:34.989Z,12.20
2018-01-04T16:15:03.268Z,12.00
2018-01-04T16:17:31.562Z,12.10
2018-01-04T16:19:59.865Z,12.20
2018-01-04T16:22:28.280Z,12.30
2018-01-04T16:24:56.518Z,12.20
2018-01-04T16:27:24.833Z,12.10
2018-01-04T16:29:53.240Z,12.00
2018-01-04T16:32:23.290Z,12.40
2018-01-04T16:34:52.464Z,12.30
2018-01-04T16:37:20.724Z,12.20
2018-01-04T16:39:49.021Z,12.30
2018-01-04T16:42:17.285Z,12.40
2018-01-04T16:44:47.330Z,12.20
2018-01-04T16:47:15.762Z,12.50
2018-01-04T16:49:44.064Z,12.50
2018-01-04T16:52:13.202Z,12.20
2018-01-04T16:54:42.328Z,12.60
2018-01-04T16:57:11.346Z,12.30
2018-01-04T16:59:39.639Z,12.40
2018-01-04T17:02:07.908Z,12.50
2018-01-04T17:04:37.572Z,12.60
2018-01-04T17:07:06.581Z,12.40
2018-01-04T17:09:35.793Z,12.40
2018-01-04T17:12:05.751Z,12.30
2018-01-04T17:14:34.037Z,12.50
2018-01-04T17:17:02.341Z,12.30
2018-01-04T17:19:31.626Z,12.40
2018-01-04T17:22:00.070Z,12.50
2018-01-04T17:24:28.352Z,12.50
2018-01-04T17:26:56.681Z,12.60
2018-01-04T17:29:25.034Z,12.70
2018-01-04T17:31:53.302Z,12.50
2018-01-04T17:34:21.565Z,12.50
2018-01-04T17:36:49.878Z,12.50
2018-01-04T17:39:18.144Z,12.70
2018-01-04T17:41:48.429Z,12.50
2018-01-04T17:44:16.758Z,12.40
2018-01-04T17:46:45.774Z,12.70
2018-01-04T17:49:14.060Z,12.60
2018-01-04T17:51:42.353Z,12.50
2018-01-04T17:54:12.196Z,12.50
2018-01-04T17:56:40.460Z,12.70
2018-01-04T17:59:11.813Z,12.60
2018-01-04T18:01:40.997Z,12.30
2018-01-04T18:04:09.238Z,12.50
2018-01-04T18:06:37.783Z,12.40
2018-01-04T18:09:07.697Z,12.40
2018-01-04T18:11:35.938Z,12.60
2018-01-04T18:14:04.230Z,12.60
2018-01-04T18:16:34.166Z,12.60
2018-01-04T18:19:02.635Z,12.50
2018-01-04T18:21:30.889Z,12.70
2018-01-04T18:23:59.146Z,12.80
2018-01-04T18:26:27.435Z,12.70
2018-01-04T18:28:55.676Z,12.50
2018-01-04T18:31:24.011Z,12.60
2018-01-04T18:33:53.311Z,12.50
2018-01-04T18:36:22.305Z,12.50
2018-01-04T18:38:50.729Z,12.80
2018-01-04T18:41:21.202Z,12.50
2018-01-04T18:43:49.470Z,12.40
2018-01-04T18:46:17.890Z,12.60
2018-01-04T18:48:47.033Z,12.70
2018-01-04T18:51:15.357Z,12.80
2018-01-04T18:53:43.596Z,12.70
2018-01-04T18:56:11.879Z,12.60
2018-01-04T18:58:40.713Z,12.60
2018-01-04T19:01:09.534Z,12.80
2018-01-04T19:03:37.862Z,12.80
2018-01-04T19:06:06.140Z,12.70
2018-01-04T19:08:34.433Z,12.60
2018-01-04T19:11:03.516Z,12.70
2018-01-04T19:13:33.470Z,12.60
2018-01-04T19:16:09.926Z,12.80
2018-01-04T19:18:38.191Z,12.60
2018-01-04T19:21:06.647Z,12.50
2018-01-04T19:23:34.932Z,12.70
2018-01-04T19:26:04.531Z,12.50
2018-01-04T19:28:33.557Z,12.40
2018-01-04T19:31:01.818Z,12.60
2018-01-04T19:33:30.291Z,12.30
2018-01-04T19:35:58.587Z,12.60
2018-01-04T19:38:26.876Z,12.70
2018-01-04T19:40:55.185Z,12.80
2018-01-04T19:43:24.301Z,12.70
2018-01-04T19:45:52.592Z,12.60
2018-01-04T19:48:20.898Z,12.40
2018-01-04T19:50:51.433Z,12.70
2018-01-04T19:53:19.760Z,12.50
2018-01-04T19:55:48.173Z,12.50
2018-01-04T19:58:16.536Z,12.60
2018-01-04T20:00:45.604Z,12.50
2018-01-04T20:03:13.845Z,12.70
2018-01-04T20:05:42.155Z,12.40
2018-01-04T20:08:10.468Z,12.50
2018-01-04T20:10:38.762Z,12.70
2018-01-04T20:13:07.102Z,12.50
2018-01-04T20:15:36.169Z,12.20
2018-01-04T20:18:04.470Z,12.30
2018-01-04T20:20:32.793Z,12.40
2018-01-04T20:23:01.042Z,12.30
2018-01-04T20:25:29.640Z,12.20
2018-01-04T20:27:57.923Z,12.20
2018-01-04T20:30:26.203Z,12.10
2018-01-04T20:32:54.648Z,12.10
2018-01-04T20:35:22.951Z,12.20
2018-01-04T20:37:52.125Z,12.10
2018-01-04T20:40:20.377Z,12.10
2018-01-04T20:42:49.695Z,12.10
2018-01-04T20:45:17.951Z,12.20
2018-01-04T20:47:46.274Z,12.10
2018-01-04T20:50:15.299Z,12.20
2018-01-04T20:52:43.735Z,12.20
2018-01-04T20:55:12.807Z,12.00
2018-01-04T20:57:41.086Z,12.20
2018-01-04T21:00:10.156Z,12.30
2018-01-04T21:02:38.658Z,12.00
2018-01-04T21:05:08.085Z,11.90
2018-01-04T21:07:36.383Z,12.00
2018-01-04T21:10:04.858Z,11.80
2018-01-04T21:12:34.127Z,12.10
2018-01-04T21:15:02.433Z,12.10
2018-01-04T21:17:31.524Z,12.20
2018-01-04T21:20:00.590Z,11.90
2018-01-04T21:22:28.893Z,11.70
2018-01-04T21:24:57.127Z,11.50
2018-01-04T21:27:25.428Z,11.70
2018-01-04T21:29:54.492Z,11.50
2018-01-04T21:32:22.821Z,11.40
2018-01-04T21:34:52.377Z,11.50
2018-01-04T21:37:20.728Z,11.50
2018-01-04T21:39:49.881Z,11.30
2018-01-04T21:42:18.214Z,11.50
2018-01-04T21:44:46.576Z,11.40
2018-01-04T21:47:15.144Z,11.50
2018-01-04T21:49:44.236Z,11.40
2018-01-04T21:52:13.317Z,11.60
2018-01-04T21:54:42.471Z,11.80
2018-01-04T21:57:12.126Z,11.40
2018-01-04T21:59:40.428Z,11.60
2018-01-04T22:02:09.483Z,11.50
2018-01-04T22:04:38.760Z,11.40
2018-01-04T22:07:07.163Z,11.60
2018-01-04T22:09:35.454Z,11.50
2018-01-04T22:12:03.718Z,11.50
2018-01-04T22:14:34.232Z,11.30
2018-01-04T22:17:02.515Z,11.60
2018-01-04T22:19:31.719Z,11.50
2018-01-04T22:22:00.045Z,11.30
2018-01-04T22:24:31.348Z,11.40
2018-01-04T22:26:59.636Z,11.30
2018-01-04T22:29:29.695Z,11.50
2018-01-04T22:32:00.060Z,11.60
2018-01-04T22:34:28.362Z,11.50
2018-01-04T22:36:56.658Z,11.30
2018-01-04T22:39:25.704Z,11.50
2018-01-04T22:41:54.792Z,11.30
2018-01-04T22:44:24.060Z,11.60
2018-01-04T22:46:52.357Z,11.50
2018-01-04T22:49:20.615Z,11.50
2018-01-04T22:51:48.874Z,11.40
2018-01-04T22:54:18.749Z,11.50
2018-01-04T22:56:47.820Z,11.40
2018-01-04T22:59:16.137Z,11.50
2018-01-04T23:01:44.520Z,11.50
2018-01-04T23:04:12.862Z,11.50
2018-01-04T23:06:42.015Z,11.50
2018-01-04T23:09:11.173Z,11.50
2018-01-04T23:11:39.437Z,11.50
2018-01-04T23:14:07.711Z,11.50
2018-01-04T23:16:36.030Z,11.40
2018-01-04T23:19:04.306Z,11.40
2018-01-04T23:21:32.567Z,11.20
2018-01-04T23:24:01.666Z,11.00
2018-01-04T23:26:29.954Z,11.30
2018-01-04T23:28:59.093Z,11.10
2018-01-04T23:31:27.353Z,11.00
2018-01-04T23:33:55.656Z,11.10
2018-01-04T23:36:23.933Z,11.20
2018-01-04T23:38:52.228Z,11.00
2018-01-04T23:41:20.500Z,11.30
2018-01-04T23:43:48.747Z,11.50
2018-01-04T23:46:17.045Z,11.30
2018-01-04T23:48:45.318Z,11.30
2018-01-04T23:51:13.589Z,11.40
2018-01-04T23:53:42.632Z,11.20
2018-01-04T23:56:11.675Z,11.10
2018-01-04T23:58:39.942Z,11.10
